createdAt,value
2018-04-28T00:01:04.701Z,75.70
2018-04-28T00:03:32.971Z,76.00
2018-04-28T00:06:01.239Z,76.30
2018-04-28T00:08:32.991Z,76.90
2018-04-28T00:11:01.265Z,77.40
2018-04-28T00:13:29.539Z,78.00
2018-04-28T00:16:22.558Z,78.50
2018-04-28T00:19:06.751Z,79.60
2018-04-28T00:21:35.648Z,79.00
2018-04-28T00:24:03.889Z,79.10
2018-04-28T00:26:32.835Z,78.90
2018-04-28T00:29:02.106Z,78.40
2018-04-28T00:31:49.768Z,78.40
2018-04-28T00:34:18.017Z,77.90
2018-04-28T00:36:59.806Z,77.70
2018-04-28T00:39:28.054Z,77.00
2018-04-28T00:41:58.006Z,77.10
2018-04-28T00:44:28.214Z,76.90
2018-04-28T00:47:08.145Z,76.30
2018-04-28T00:49:38.795Z,76.00
2018-04-28T00:52:07.039Z,75.50
2018-04-28T00:54:39.469Z,74.30
2018-04-28T00:57:12.225Z,74.20
2018-04-28T00:59:40.485Z,74.30
2018-04-28T01:02:11.046Z,74.10
2018-04-28T01:04:40.888Z,72.20
2018-04-28T01:07:09.127Z,70.30
2018-04-28T01:09:37.403Z,69.00
2018-04-28T01:12:05.669Z,67.80
2018-04-28T01:14:39.759Z,66.90
2018-04-28T01:17:09.405Z,66.40
2018-04-28T01:19:37.660Z,65.80
2018-04-28T01:22:05.929Z,64.80
2018-04-28T01:24:36.857Z,64.10
2018-04-28T01:30:17.663Z,63.10
2018-04-28T01:35:47.911Z,62.80
2018-04-28T01:38:18.025Z,62.50
2018-04-28T01:40:46.295Z,62.30
2018-04-28T01:43:21.221Z,62.00
2018-04-28T01:46:11.900Z,61.70
2018-04-28T01:48:42.157Z,61.80
2018-04-28T01:51:11.168Z,61.90
2018-04-28T01:53:43.844Z,61.80
2018-04-28T01:56:26.973Z,61.60
2018-04-28T01:58:56.105Z,61.70
2018-04-28T02:01:28.939Z,61.80
2018-04-28T02:06:55.561Z,61.50
2018-04-28T02:09:23.800Z,61.50
2018-04-28T02:11:57.615Z,61.70
2018-04-28T02:14:30.231Z,61.40
2018-04-28T02:17:01.179Z,61.40
2018-04-28T02:19:44.068Z,61.50
2018-04-28T02:22:22.005Z,61.60
2018-04-28T02:25:02.076Z,61.50
2018-04-28T02:27:31.164Z,61.40
2018-04-28T02:30:09.608Z,61.30
2018-04-28T02:32:39.482Z,61.10
2018-04-28T02:35:12.385Z,60.90
2018-04-28T02:37:50.453Z,61.00
2018-04-28T02:43:41.968Z,60.80
2018-04-28T02:46:11.220Z,61.10
2018-04-28T02:48:52.169Z,61.00
2018-04-28T02:51:29.053Z,61.00
2018-04-28T02:53:59.191Z,61.20
2018-04-28T02:59:44.976Z,62.20
2018-04-28T03:02:34.136Z,62.50
2018-04-28T03:05:02.421Z,62.80
2018-04-28T03:10:53.847Z,63.60
2018-04-28T03:13:24.481Z,64.00
2018-04-28T03:16:03.155Z,64.80
2018-04-28T03:18:33.941Z,64.80
2018-04-28T03:21:02.652Z,64.90
2018-04-28T03:23:35.403Z,64.80
2018-04-28T03:26:07.677Z,64.70
2018-04-28T03:28:39.174Z,64.70
2018-04-28T03:31:10.061Z,64.90
2018-04-28T03:33:42.948Z,65.10
2018-04-28T03:36:15.409Z,65.10
2018-04-28T03:42:04.504Z,65.30
2018-04-28T03:44:53.777Z,65.50
2018-04-28T03:47:38.637Z,65.50
2018-04-28T03:50:08.141Z,65.80
2018-04-28T03:52:46.052Z,65.80
2018-04-28T03:55:14.058Z,65.80
2018-04-28T03:58:02.860Z,65.60
2018-04-28T04:00:43.438Z,65.50
2018-04-28T04:03:26.153Z,65.40
2018-04-28T04:06:09.888Z,65.30
2018-04-28T04:08:57.392Z,65.40
2018-04-28T04:11:38.840Z,65.10
2018-04-28T04:14:13.524Z,65.10
2018-04-28T04:16:57.099Z,65.20
2018-04-28T04:19:31.074Z,65.20
2018-04-28T04:25:18.104Z,64.80
2018-04-28T04:31:03.507Z,63.50
2018-04-28T04:34:04.124Z,63.00
2018-04-28T04:36:48.556Z,61.30
2018-04-28T04:42:37.267Z,59.90
2018-04-28T04:45:07.927Z,59.90
2018-04-28T04:47:37.284Z,59.20
2018-04-28T04:50:13.856Z,58.30
2018-04-28T04:52:55.146Z,57.70
2018-04-28T04:55:31.616Z,57.10
2018-04-28T05:01:06.866Z,55.80
2018-04-28T05:03:57.392Z,53.60
2018-04-28T05:06:36.849Z,53.60
2018-04-28T05:09:18.701Z,52.40
2018-04-28T05:11:58.640Z,51.50
2018-04-28T05:14:28.748Z,50.30
2018-04-28T05:16:56.729Z,50.30
2018-04-28T05:19:34.467Z,48.10
2018-04-28T05:25:13.607Z,47.60
2018-04-28T05:27:50.336Z,45.80
2018-04-28T05:30:29.028Z,41.50
2018-04-28T05:33:00.624Z,41.40
2018-04-28T05:35:50.200Z,40.40
2018-04-28T05:38:41.702Z,41.80
2018-04-28T05:44:24.096Z,43.80
2018-04-28T05:46:55.703Z,44.50
2018-04-28T05:49:35.549Z,45.20
2018-04-28T05:55:05.871Z,44.70
2018-04-28T05:57:43.676Z,44.70
2018-04-28T06:00:23.741Z,44.30
2018-04-28T06:02:52.742Z,43.70
2018-04-28T06:08:37.799Z,41.40
2018-04-28T06:11:14.596Z,40.90
2018-04-28T06:13:54.596Z,39.50
2018-04-28T06:16:31.253Z,38.80
2018-04-28T06:19:07.820Z,39.20
2018-04-28T06:21:35.858Z,40.50
2018-04-28T06:24:04.740Z,42.90
2018-04-28T06:26:33.509Z,42.80
2018-04-28T06:29:01.512Z,42.80
2018-04-28T06:31:29.527Z,42.70
2018-04-28T06:33:57.545Z,43.80
2018-04-28T06:36:26.308Z,44.60
2018-04-28T06:38:54.400Z,44.50
2018-04-28T06:41:23.172Z,44.10
2018-04-28T06:43:51.969Z,44.60
2018-04-28T06:46:20.756Z,44.40
2018-04-28T06:48:49.529Z,44.40
2018-04-28T06:51:17.622Z,44.40
2018-04-28T06:53:46.394Z,44.50
2018-04-28T06:56:14.399Z,44.40
2018-04-28T06:58:42.470Z,44.30
2018-04-28T07:01:11.243Z,42.20
2018-04-28T07:03:40.134Z,42.20
2018-04-28T07:06:08.897Z,41.00
2018-04-28T07:08:37.671Z,40.20
2018-04-28T07:11:05.767Z,40.60
2018-04-28T07:13:34.545Z,40.00
2018-04-28T07:16:03.321Z,40.20
2018-04-28T07:18:31.330Z,40.20
2018-04-28T07:20:59.336Z,40.40
2018-04-28T07:23:27.353Z,40.70
2018-04-28T07:25:56.116Z,41.70
2018-04-28T07:28:24.119Z,42.30
2018-04-28T07:30:52.182Z,43.00
2018-04-28T07:33:20.948Z,42.80
2018-04-28T07:35:49.034Z,42.80
2018-04-28T07:38:17.820Z,42.50
2018-04-28T07:40:46.596Z,41.10
2018-04-28T07:43:14.628Z,41.80
2018-04-28T07:45:42.645Z,41.50
2018-04-28T07:48:11.423Z,40.80
2018-04-28T07:50:40.221Z,40.40
2018-04-28T07:53:08.984Z,38.40
2018-04-28T07:55:37.080Z,38.40
2018-04-28T07:58:05.865Z,39.00
2018-04-28T08:00:34.656Z,38.90
2018-04-28T08:03:03.444Z,38.10
2018-04-28T08:05:32.221Z,37.70
2018-04-28T08:08:00.305Z,37.70
2018-04-28T08:10:29.111Z,37.00
2018-04-28T08:12:57.176Z,37.00
2018-04-28T08:15:25.247Z,38.20
2018-04-28T08:17:53.304Z,40.00
2018-04-28T08:20:22.077Z,39.20
2018-04-28T08:22:50.076Z,39.20
2018-04-28T08:25:18.090Z,38.40
2018-04-28T08:27:46.108Z,37.00
2018-04-28T08:30:14.892Z,36.90
2018-04-28T08:32:43.675Z,37.50
2018-04-28T08:35:12.468Z,37.00
2018-04-28T08:37:41.240Z,36.30
2018-04-28T08:40:10.048Z,35.20
2018-04-28T08:42:38.089Z,35.20
2018-04-28T08:45:07.564Z,35.30
2018-04-28T08:47:35.604Z,35.30
2018-04-28T08:50:03.655Z,34.50
2018-04-28T08:52:32.431Z,34.60
2018-04-28T08:55:01.244Z,34.20
2018-04-28T08:57:30.228Z,34.20
2018-04-28T09:00:10.168Z,34.10
2018-04-28T09:02:38.923Z,33.90
2018-04-28T09:05:08.444Z,33.30
2018-04-28T09:07:38.073Z,32.40
2018-04-28T09:10:06.873Z,32.20
2018-04-28T09:12:35.184Z,32.10
2018-04-28T09:15:04.225Z,31.30
2018-04-28T09:17:32.476Z,30.90
2018-04-28T09:20:00.729Z,31.40
2018-04-28T09:22:29.783Z,30.00
2018-04-28T09:24:58.083Z,29.90
2018-04-28T09:27:26.316Z,30.50
2018-04-28T09:29:54.632Z,32.10
2018-04-28T09:32:22.968Z,31.30
2018-04-28T09:34:51.209Z,32.80
2018-04-28T09:37:20.228Z,32.70
2018-04-28T09:39:48.472Z,32.60
2018-04-28T09:42:17.512Z,29.40
2018-04-28T09:44:45.751Z,29.40
2018-04-28T09:47:14.068Z,29.80
2018-04-28T09:49:42.308Z,29.10
2018-04-28T09:52:10.566Z,30.00
2018-04-28T09:54:39.568Z,31.20
2018-04-28T09:57:07.876Z,31.20
2018-04-28T09:59:36.136Z,29.60
2018-04-28T10:02:10.160Z,27.70
2018-04-28T10:04:38.391Z,28.00
2018-04-28T10:07:07.437Z,29.60
2018-04-28T10:09:35.675Z,29.60
2018-04-28T10:12:03.979Z,29.80
2018-04-28T10:14:32.223Z,30.50
2018-04-28T10:17:00.467Z,30.60
2018-04-28T10:19:28.809Z,32.10
2018-04-28T10:21:57.088Z,32.50
2018-04-28T10:24:25.360Z,31.90
2018-04-28T10:26:53.863Z,30.70
2018-04-28T10:29:22.081Z,29.10
2018-04-28T10:31:51.084Z,28.00
2018-04-28T10:34:19.405Z,28.00
2018-04-28T10:36:47.646Z,29.20
2018-04-28T10:39:15.920Z,29.70
2018-04-28T10:41:44.911Z,29.60
2018-04-28T10:44:13.251Z,29.60
2018-04-28T10:46:41.477Z,29.10
2018-04-28T10:49:09.721Z,30.20
2018-04-28T10:51:38.772Z,32.30
2018-04-28T10:54:07.041Z,32.30
2018-04-28T10:56:35.294Z,32.40
2018-04-28T10:59:03.542Z,33.60
2018-04-28T11:01:32.552Z,33.40
2018-04-28T11:04:00.786Z,33.40
2018-04-28T11:06:29.036Z,31.70
2018-04-28T11:08:57.309Z,30.60
2018-04-28T11:11:25.556Z,30.10
2018-04-28T11:13:53.851Z,30.70
2018-04-28T11:16:22.829Z,31.60
2018-04-28T11:18:51.086Z,31.70
2018-04-28T11:21:20.101Z,31.30
2018-04-28T11:23:48.356Z,31.30
2018-04-28T11:26:16.659Z,30.90
2018-04-28T11:28:44.913Z,32.20
2018-04-28T11:31:13.240Z,32.10
2018-04-28T11:33:41.489Z,33.40
2018-04-28T11:36:09.881Z,33.50
2018-04-28T11:38:38.128Z,32.70
2018-04-28T11:41:06.425Z,33.00
2018-04-28T11:43:34.829Z,33.50
2018-04-28T11:46:03.083Z,34.00
2018-04-28T11:48:31.320Z,34.90
2018-04-28T11:50:59.641Z,35.90
2018-04-28T11:53:27.908Z,35.40
2018-04-28T11:55:56.151Z,35.60
2018-04-28T11:58:24.393Z,36.40
2018-04-28T12:00:54.479Z,37.50
2018-04-28T12:03:22.725Z,37.50
2018-04-28T12:05:53.385Z,38.30
2018-04-28T12:08:21.613Z,37.80
2018-04-28T12:10:50.643Z,36.00
2018-04-28T12:13:18.929Z,36.00
2018-04-28T12:15:47.186Z,34.90
2018-04-28T12:18:15.476Z,37.00
2018-04-28T12:20:43.847Z,39.70
2018-04-28T12:23:12.101Z,38.70
2018-04-28T12:25:40.366Z,39.10
2018-04-28T12:28:09.536Z,37.20
2018-04-28T12:30:37.867Z,37.20
2018-04-28T12:33:06.113Z,37.50
2018-04-28T12:35:36.016Z,37.50
2018-04-28T12:38:05.065Z,37.30
2018-04-28T12:40:33.309Z,37.20
2018-04-28T12:43:01.569Z,35.70
2018-04-28T12:45:30.604Z,35.50
2018-04-28T12:47:58.873Z,35.50
2018-04-28T12:50:27.162Z,36.90
2018-04-28T12:52:55.361Z,37.20
2018-04-28T12:55:23.608Z,37.40
2018-04-28T12:57:51.878Z,38.40
2018-04-28T13:00:20.124Z,38.90
2018-04-28T13:02:49.148Z,37.40
2018-04-28T13:05:17.391Z,37.30
2018-04-28T13:07:45.687Z,35.50
2018-04-28T13:10:13.936Z,35.90
2018-04-28T13:12:42.182Z,37.30
2018-04-28T13:15:10.526Z,37.20
2018-04-28T13:17:38.768Z,36.70
2018-04-28T13:20:07.059Z,36.00
2018-04-28T13:22:35.327Z,36.60
2018-04-28T13:25:03.577Z,37.80
2018-04-28T13:27:32.613Z,37.50
2018-04-28T13:30:00.888Z,37.40
2018-04-28T13:32:29.155Z,35.70
2018-04-28T13:34:57.449Z,34.30
2018-04-28T13:37:25.701Z,35.10
2018-04-28T13:39:53.976Z,35.60
2018-04-28T13:42:22.249Z,36.20
2018-04-28T13:44:50.493Z,37.40
2018-04-28T13:47:19.536Z,38.70
2018-04-28T13:49:47.849Z,37.90
2018-04-28T13:52:16.069Z,38.10
2018-04-28T13:54:44.308Z,38.20
2018-04-28T13:57:13.356Z,39.00
2018-04-28T13:59:41.592Z,38.50
2018-04-28T14:02:10.624Z,39.70
2018-04-28T14:04:39.009Z,39.10
2018-04-28T14:07:07.275Z,38.30
2018-04-28T14:09:35.557Z,37.70
2018-04-28T14:12:03.808Z,38.50
2018-04-28T14:14:32.061Z,37.90
2018-04-28T14:17:01.092Z,36.80
2018-04-28T14:19:29.368Z,36.70
2018-04-28T14:21:57.612Z,37.00
2018-04-28T14:24:26.641Z,37.50
2018-04-28T14:26:54.970Z,37.50
2018-04-28T14:29:23.175Z,37.20
2018-04-28T14:31:51.412Z,37.00
2018-04-28T14:34:19.744Z,37.60
2018-04-28T14:36:47.997Z,36.50
2018-04-28T14:39:16.232Z,36.90
2018-04-28T14:41:45.992Z,36.10
2018-04-28T14:44:14.241Z,36.00
2018-04-28T14:46:43.260Z,34.30
2018-04-28T14:49:11.571Z,34.30
2018-04-28T14:51:39.823Z,34.20
2018-04-28T14:54:08.072Z,33.80
2018-04-28T14:56:36.383Z,34.00
2018-04-28T14:59:04.660Z,33.90
2018-04-28T15:01:32.911Z,33.80
2018-04-28T15:04:01.151Z,34.10
2018-04-28T15:06:29.404Z,33.40
2018-04-28T15:08:57.644Z,33.90
2018-04-28T15:11:25.908Z,33.80
2018-04-28T15:13:54.151Z,33.80
2018-04-28T15:16:22.485Z,33.80
2018-04-28T15:18:50.756Z,33.40
2018-04-28T15:21:19.009Z,34.10
2018-04-28T15:23:47.298Z,34.80
2018-04-28T15:26:15.546Z,34.60
2018-04-28T15:28:44.572Z,34.60
2018-04-28T15:31:12.808Z,34.60
2018-04-28T15:33:41.849Z,34.60
2018-04-28T15:36:10.085Z,34.50
2018-04-28T15:38:39.153Z,34.50
2018-04-28T15:41:07.379Z,34.50
2018-04-28T15:43:35.636Z,35.10
2018-04-28T15:46:04.644Z,35.30
2018-04-28T15:48:32.888Z,35.30
2018-04-28T15:51:01.938Z,35.70
2018-04-28T15:53:30.147Z,35.70
2018-04-28T15:55:58.393Z,35.80
2018-04-28T15:58:26.628Z,35.80
2018-04-28T16:00:54.885Z,36.00
2018-04-28T16:03:23.930Z,35.80
2018-04-28T16:05:52.209Z,35.80
2018-04-28T16:08:20.432Z,36.00
2018-04-28T16:10:49.446Z,36.50
2018-04-28T16:13:17.687Z,36.50
2018-04-28T16:15:45.984Z,37.20
2018-04-28T16:18:15.011Z,37.30
2018-04-28T16:20:43.252Z,37.30
2018-04-28T16:23:11.547Z,37.50
2018-04-28T16:25:40.693Z,36.90
2018-04-28T16:28:08.941Z,37.10
2018-04-28T16:30:37.189Z,37.40
2018-04-28T16:33:05.443Z,38.00
2018-04-28T16:35:34.454Z,39.10
2018-04-28T16:38:02.703Z,39.10
2018-04-28T16:40:31.712Z,39.00
2018-04-28T16:43:01.514Z,39.20
2018-04-28T16:45:29.835Z,39.20
2018-04-28T16:47:58.075Z,39.70
2018-04-28T16:50:26.373Z,40.00
2018-04-28T16:52:54.620Z,40.90
2018-04-28T16:55:23.635Z,40.40
2018-04-28T16:57:51.876Z,40.40
2018-04-28T17:00:20.897Z,41.40
2018-04-28T17:02:49.166Z,41.40
2018-04-28T17:05:18.176Z,41.70
2018-04-28T17:07:46.430Z,41.70
2018-04-28T17:10:15.435Z,41.60
2018-04-28T17:12:43.676Z,41.60
2018-04-28T17:15:12.697Z,42.00
2018-04-28T17:17:54.359Z,42.00
2018-04-28T17:20:23.392Z,43.60
2018-04-28T17:22:51.680Z,42.80
2018-04-28T17:25:19.952Z,43.00
2018-04-28T17:27:48.199Z,43.20
2018-04-28T17:30:16.504Z,43.40
2018-04-28T17:32:44.781Z,43.80
2018-04-28T17:35:13.015Z,44.30
2018-04-28T17:37:42.053Z,45.00
2018-04-28T17:40:10.292Z,45.00
2018-04-28T17:42:39.331Z,45.10
2018-04-28T17:45:07.584Z,45.10
2018-04-28T17:47:35.836Z,45.20
2018-04-28T17:50:04.860Z,45.80
2018-04-28T17:52:33.135Z,45.80
2018-04-28T17:55:01.413Z,46.20
2018-04-28T17:57:29.711Z,47.00
2018-04-28T17:59:57.968Z,47.40
2018-04-28T18:02:26.212Z,47.60
2018-04-28T18:04:54.531Z,48.00
2018-04-28T18:07:22.831Z,48.40
2018-04-28T18:09:51.053Z,49.20
2018-04-28T18:12:19.344Z,49.20
2018-04-28T18:14:47.615Z,49.40
2018-04-28T18:17:15.844Z,50.00
2018-04-28T18:19:44.865Z,50.60
2018-04-28T18:22:13.112Z,50.60
2018-04-28T18:24:42.148Z,50.90
2018-04-28T18:27:10.390Z,50.80
2018-04-28T18:29:39.426Z,51.00
2018-04-28T18:32:08.356Z,51.00
2018-04-28T18:34:36.692Z,51.50
2018-04-28T18:37:04.951Z,51.90
2018-04-28T18:39:33.197Z,52.10
2018-04-28T18:42:03.014Z,52.20
2018-04-28T18:44:31.317Z,52.20
2018-04-28T18:46:59.564Z,52.20
2018-04-28T18:49:28.572Z,52.30
2018-04-28T18:51:56.824Z,52.30
2018-04-28T18:54:25.860Z,52.60
2018-04-28T18:56:54.113Z,52.50
2018-04-28T18:59:22.410Z,52.60
2018-04-28T19:01:50.676Z,52.90
2018-04-28T19:04:18.912Z,53.00
2018-04-28T19:06:47.972Z,53.00
2018-04-28T19:09:16.226Z,53.00
2018-04-28T19:11:44.468Z,52.90
2018-04-28T19:14:13.571Z,52.90
2018-04-28T19:16:41.723Z,52.90
2018-04-28T19:19:10.760Z,53.00
2018-04-28T19:21:39.013Z,53.00
2018-04-28T19:24:07.272Z,52.80
2018-04-28T19:26:36.281Z,53.10
2018-04-28T19:29:04.525Z,53.10
2018-04-28T19:31:32.767Z,52.90
2018-04-28T19:34:01.007Z,54.70
2018-04-28T19:36:29.252Z,55.40
2018-04-28T19:38:57.551Z,54.60
2018-04-28T19:41:25.792Z,55.40
2018-04-28T19:43:54.916Z,56.20
2018-04-28T19:46:23.959Z,57.00
2018-04-28T19:48:52.200Z,57.00
2018-04-28T19:51:20.465Z,57.10
2018-04-28T19:53:48.708Z,57.50
2018-04-28T19:56:17.043Z,58.60
2018-04-28T19:58:45.293Z,57.50
2018-04-28T20:01:13.540Z,56.90
2018-04-28T20:03:41.792Z,56.60
2018-04-28T20:06:10.048Z,57.70
2018-04-28T20:08:38.325Z,57.20
2018-04-28T20:11:06.602Z,58.20
2018-04-28T20:13:34.876Z,58.80
2018-04-28T20:16:03.159Z,59.20
2018-04-28T20:18:31.404Z,58.60
2018-04-28T20:20:59.675Z,59.50
2018-04-28T20:23:40.663Z,57.00
2018-04-28T20:26:08.957Z,57.00
2018-04-28T20:28:37.191Z,56.60
2018-04-28T20:31:06.300Z,56.30
2018-04-28T20:33:34.588Z,56.30
2018-04-28T20:36:02.860Z,56.20
2018-04-28T20:38:31.101Z,56.60
2018-04-28T20:41:00.156Z,58.70
2018-04-28T20:43:28.399Z,58.70
2018-04-28T20:45:56.653Z,58.70
2018-04-28T20:48:25.676Z,58.90
2018-04-28T20:50:53.941Z,58.80
2018-04-28T20:53:22.249Z,58.90
2018-04-28T20:55:50.606Z,58.90
2018-04-28T20:58:18.881Z,58.60
2018-04-28T21:00:47.170Z,58.80
2018-04-28T21:03:15.420Z,59.10
2018-04-28T21:05:43.713Z,59.10
2018-04-28T21:08:11.975Z,59.20
2018-04-28T21:10:40.258Z,59.50
2018-04-28T21:13:08.504Z,59.70
2018-04-28T21:15:36.756Z,59.90
2018-04-28T21:18:05.005Z,60.10
2018-04-28T21:20:33.252Z,60.40
2018-04-28T21:23:01.531Z,60.50
2018-04-28T21:25:29.778Z,60.40
2018-04-28T21:27:58.809Z,59.80
2018-04-28T21:30:27.048Z,59.80
2018-04-28T21:32:55.357Z,59.70
2018-04-28T21:35:23.617Z,59.70
2018-04-28T21:37:51.873Z,61.00
2018-04-28T21:40:20.241Z,61.60
2018-04-28T21:42:49.279Z,61.50
2018-04-28T21:45:17.561Z,61.50
2018-04-28T21:47:45.814Z,62.60
2018-04-28T21:50:14.065Z,62.00
2018-04-28T21:52:43.109Z,62.60
2018-04-28T21:55:11.391Z,62.60
2018-04-28T21:57:39.651Z,64.20
2018-04-28T22:00:07.932Z,64.80
2018-04-28T22:02:36.176Z,64.30
2018-04-28T22:05:04.442Z,64.50
2018-04-28T22:07:32.753Z,64.40
2018-04-28T22:10:01.013Z,64.40
2018-04-28T22:12:29.531Z,65.50
2018-04-28T22:14:57.881Z,66.00
2018-04-28T22:17:26.128Z,66.30
2018-04-28T22:19:54.380Z,66.70
2018-04-28T22:22:23.400Z,67.10
2018-04-28T22:24:51.652Z,67.00
2018-04-28T22:27:20.742Z,67.40
2018-04-28T22:29:48.990Z,67.40
2018-04-28T22:32:17.260Z,67.30
2018-04-28T22:34:45.528Z,67.60
2018-04-28T22:37:13.908Z,67.70
2018-04-28T22:39:42.158Z,67.90
2018-04-28T22:42:10.421Z,68.10
2018-04-28T22:44:38.663Z,68.50
2018-04-28T22:47:06.936Z,69.10
2018-04-28T22:49:35.180Z,69.50
2018-04-28T22:52:03.450Z,69.90
2018-04-28T22:54:32.036Z,69.50
2018-04-28T22:57:00.300Z,69.90
2018-04-28T22:59:28.547Z,69.70
2018-04-28T23:01:57.564Z,69.50
2018-04-28T23:04:25.810Z,69.40
2018-04-28T23:06:55.057Z,69.60
2018-04-28T23:09:23.286Z,69.50
2018-04-28T23:11:52.815Z,69.80
2018-04-28T23:14:21.061Z,69.70
2018-04-28T23:16:50.085Z,70.10
2018-04-28T23:19:18.326Z,70.00
2018-04-28T23:21:47.344Z,70.40
2018-04-28T23:24:15.592Z,70.20
2018-04-28T23:26:44.600Z,70.40
2018-04-28T23:29:12.848Z,70.30
2018-04-28T23:31:41.183Z,70.00
2018-04-28T23:34:09.443Z,69.90
2018-04-28T23:36:37.744Z,69.80
2018-04-28T23:39:06.013Z,69.60
2018-04-28T23:41:34.639Z,69.30
2018-04-28T23:44:02.873Z,69.90
2018-04-28T23:46:31.116Z,69.50
2018-04-28T23:48:59.376Z,69.20
2018-04-28T23:51:28.415Z,68.20
2018-04-28T23:53:57.539Z,68.20
2018-04-28T23:56:25.788Z,68.10
2018-04-28T23:58:54.056Z,67.80
